Flight Track Log - Related Links

Times and Time Zones

All times are in EDT time to prevent confusion due to time zone crossing. See the N121JM flight status page for this flight to view local times or setup timezone preferences in your user account.

Time Position Orientation Groundspeed Altitude Reporting Facility
EDT Latitude Longitude Course Direction KTS MPH feet Rate Location/Type
Sun 05:51:47 AM 40.8498 -74.0657 57° Northeast 142 163 300  Level FlightAware ADS-B
Sun 05:52:08 AM 40.8392 -74.0806 227° Southwest 165 190 1,000 1,667 Climbing FlightAware ADS-B
Sun 05:52:23 AM 40.8320 -74.0912 228° Southwest 154 177 1,300 1,143 Climbing FlightAware ADS-B
Sun 05:52:29 AM 40.8295 -74.0956 233° Southwest 154 177 1,400 1,500 Climbing FlightAware ADS-B
Sun 05:52:35 AM 40.8276 -74.0997 239° Southwest 154 177 1,600 1,333 Climbing FlightAware ADS-B
Sun 05:52:38 AM 40.8265 -74.1026 243° Southwest 155 178 1,600 1,500 Level FlightAware ADS-B
Sun 05:53:23 AM 40.8130 -74.1442 247° West 175 201 2,800 1,574 Climbing FlightAware ADS-B
Sun 05:53:39 AM 40.8093 -74.1608 254° West 186 214 3,200 1,714 Climbing FlightAware ADS-B
Sun 05:53:44 AM 40.8079 -74.1666 252° West 194 223 3,400 1,333 Climbing FlightAware ADS-B
Sun 05:53:57 AM 40.8036 -74.1819 250° West 213 245 3,600 1,500 Climbing FlightAware ADS-B
Sun 05:54:12 AM 40.7980 -74.2015 249° West 234 269 4,100 1,862 Climbing FlightAware ADS-B
Sun 05:54:26 AM 40.7921 -74.2212 248° West 251 289 4,500 2,160 Climbing FlightAware ADS-B
Sun 05:54:37 AM 40.7867 -74.2369 246° West 261 300 5,000 2,538 Climbing FlightAware ADS-B
Sun 05:54:52 AM 40.7784 -74.2582 243° Southwest 268 308 5,600 3,000 Climbing FlightAware ADS-B
Sun 05:55:13 AM 40.7655 -74.2883 241° Southwest 268 308 6,800 3,450 Climbing FlightAware ADS-B
Sun 05:55:32 AM 40.7548 -74.3148 242° Southwest 263 303 7,900 3,600 Climbing FlightAware ADS-B
Sun 05:55:48 AM 40.7455 -74.3365 241° Southwest 257 296 8,900 3,600 Climbing FlightAware ADS-B
Sun 05:55:57 AM 40.7400 -74.3492 240° Southwest 255 293 9,400 2,780 Climbing FlightAware ADS-B
Sun 05:56:29 AM 40.7220 -74.3930 242° Southwest 263 303 10,800 2,308 Climbing FlightAware ADS-B
Sun 05:56:36 AM 40.7179 -74.4026 241° Southwest 253 291 10,900 789 Climbing FlightAware ADS-B
Sun 05:57:07 AM 40.6975 -74.4501 240° Southwest 302 348 11,300 1,143 Climbing FlightAware ADS-B
Sun 05:57:39 AM 40.6750 -74.5040 241° Southwest 325 374 12,100 1,500 Climbing FlightAware ADS-B
Sun 05:58:15 AM 40.6490 -74.5660 241° Southwest 343 395 13,000 1,433 Climbing FlightAware ADS-B
Sun 05:58:46 AM 40.6220 -74.6270 240° Southwest 357 411 13,700 1,500 Climbing FlightAware ADS-B
Sun 05:59:23 AM 40.5930 -74.6980 242° Southwest 365 420 14,700 1,703 Climbing FlightAware ADS-B
Sun 06:00:00 AM 40.5630 -74.7690 241° Southwest 372 428 15,800 1,739 Climbing FlightAware ADS-B
Sun 06:00:32 AM 40.5360 -74.8330 241° Southwest 376 433 16,700 1,701 Climbing FlightAware ADS-B
Sun 06:01:07 AM 40.5060 -74.9030 241° Southwest 380 437 17,700 1,583 Climbing FlightAware ADS-B
Sun 06:01:44 AM 40.4690 -74.9730 235° Southwest 390 449 18,600 1,500 Climbing FlightAware ADS-B
Sun 06:02:19 AM 40.4300 -75.0370 231° Southwest 396 456 19,500 1,522 Climbing FlightAware ADS-B
Sun 06:02:51 AM 40.3920 -75.1010 232° Southwest 404 465 20,300 1,500 Climbing FlightAware ADS-B
Sun 06:03:27 AM 40.3510 -75.1680 231° Southwest 411 473 21,200 1,500 Climbing FlightAware ADS-B
Sun 06:04:03 AM 40.3080 -75.2390 232° Southwest 417 480 22,100 1,500 Climbing FlightAware ADS-B
Sun 06:04:39 AM 40.2650 -75.3100 232° Southwest 422 486 23,000 1,478 Climbing FlightAware ADS-B
Sun 06:05:12 AM 40.2250 -75.3750 231° Southwest 425 489 23,800 1,477 Climbing FlightAware ADS-B
Sun 06:05:44 AM 40.1830 -75.4430 231° Southwest 429 494 24,600 1,500 Climbing FlightAware ADS-B
Sun 06:06:24 AM 40.1330 -75.5240 231° Southwest 433 498 25,600 1,500 Climbing FlightAware ADS-B
Sun 06:06:56 AM 40.0920 -75.5900 231° Southwest 436 502 26,400 1,478 Climbing FlightAware ADS-B
Sun 06:07:33 AM 40.0470 -75.6630 231° Southwest 437 503 27,300 1,541 Climbing FlightAware ADS-B
Sun 06:08:10 AM 39.9980 -75.7420 231° Southwest 437 503 28,300 1,565 Climbing FlightAware ADS-B
Sun 06:08:42 AM 39.9570 -75.8070 231° Southwest 436 502 29,100 1,433 Climbing FlightAware ADS-B
Sun 06:09:17 AM 39.9130 -75.8780 231° Southwest 435 501 29,900 1,500 Climbing FlightAware ADS-B
Sun 06:09:54 AM 39.8670 -75.9530 231° Southwest 435 501 30,900 1,521 Climbing FlightAware ADS-B
Sun 06:10:28 AM 39.8240 -76.0200 230° Southwest 432 497 31,700 1,412 Climbing FlightAware ADS-B
Sun 06:11:02 AM 39.7800 -76.0900 231° Southwest 429 494 32,500 1,457 Climbing FlightAware ADS-B
Sun 06:11:38 AM 39.7340 -76.1620 230° Southwest 427 491 33,400 1,500 Climbing FlightAware ADS-B
Sun 06:12:14 AM 39.6920 -76.2290 231° Southwest 423 487 34,300 1,543 Climbing FlightAware ADS-B
Sun 06:12:48 AM 39.6480 -76.2990 231° Southwest 418 481 35,200 1,457 Climbing FlightAware ADS-B
Sun 06:13:24 AM 39.6030 -76.3690 230° Southwest 410 472 36,000 1,371 Climbing FlightAware ADS-B
Sun 06:13:58 AM 39.5670 -76.4270 231° Southwest 404 465 36,800 1,457 Climbing FlightAware ADS-B
Sun 06:14:34 AM 39.5210 -76.4980 230° Southwest 396 456 37,700 1,412 Climbing FlightAware ADS-B
Sun 06:15:06 AM 39.4850 -76.5550 231° Southwest 392 451 38,400 1,059 Climbing FlightAware ADS-B
Sun 06:15:42 AM 39.4460 -76.6160 230° Southwest 392 451 38,900 943 Climbing FlightAware ADS-B
Sun 06:16:16 AM 39.4030 -76.6840 231° Southwest 392 451 39,500 833 Climbing FlightAware ADS-B
Sun 06:16:54 AM 39.3600 -76.7490 229° Southwest 391 450 39,900 405 Climbing FlightAware ADS-B
Sun 06:17:30 AM 39.3180 -76.8140 230° Southwest 398 458 40,000 88 Climbing FlightAware ADS-B
Sun 06:18:02 AM 39.2800 -76.8740 231° Southwest 408 470 40,000  Level FlightAware ADS-B
Sun 06:18:36 AM 39.2390 -76.9380 230° Southwest 414 476 40,000  Level FlightAware ADS-B
Sun 06:19:14 AM 39.1930 -77.0100 231° Southwest 421 484 40,000  Level FlightAware ADS-B
Sun 06:19:50 AM 39.1480 -77.0790 230° Southwest 425 489 40,000  Level FlightAware ADS-B
Sun 06:20:22 AM 39.1060 -77.1420 229° Southwest 429 494 40,000  Level FlightAware ADS-B
Sun 06:20:58 AM 39.0610 -77.2130 231° Southwest 431 496 40,000  Level FlightAware ADS-B
Sun 06:21:36 AM 39.0120 -77.2880 230° Southwest 432 497 40,000  Level FlightAware ADS-B
Sun 06:22:08 AM 38.9700 -77.3510 229° Southwest 434 499 40,000  Level FlightAware ADS-B
Sun 06:22:42 AM 38.9270 -77.4170 230° Southwest 435 501 40,000  Level FlightAware ADS-B
Sun 06:23:20 AM 38.8780 -77.4920 230° Southwest 435 501 40,000  Level FlightAware ADS-B
Sun 06:23:56 AM 38.8310 -77.5630 230° Southwest 436 502 40,000  Level FlightAware ADS-B
Sun 06:24:28 AM 38.7900 -77.6250 230° Southwest 435 501 40,000  Level FlightAware ADS-B
Sun 06:25:04 AM 38.7420 -77.6970 229° Southwest 436 502 40,000  Level FlightAware ADS-B
Sun 06:25:36 AM 38.7010 -77.7600 230° Southwest 435 501 40,000  Level FlightAware ADS-B
Sun 06:26:16 AM 38.6480 -77.8390 229° Southwest 435 501 40,000  Level FlightAware ADS-B
Sun 06:26:48 AM 38.6080 -77.9000 230° Southwest 435 501 40,000  Level FlightAware ADS-B
Sun 06:27:24 AM 38.5600 -77.9720 230° Southwest 435 501 40,000  Level FlightAware ADS-B
Sun 06:28:00 AM 38.5130 -78.0420 229° Southwest 438 504 40,000  Level FlightAware ADS-B
Sun 06:28:36 AM 38.4650 -78.1140 230° Southwest 440 506 40,000  Level FlightAware ADS-B
Sun 06:29:08 AM 38.4230 -78.1760 229° Southwest 443 510 40,000  Level FlightAware ADS-B
Sun 06:29:44 AM 38.3750 -78.2480 230° Southwest 442 509 40,000  Level FlightAware ADS-B
Sun 06:30:20 AM 38.3270 -78.3190 229° Southwest 443 510 40,000  Level FlightAware ADS-B
Sun 06:30:52 AM 38.2840 -78.3810 229° Southwest 441 507 40,000  Level FlightAware ADS-B
Sun 06:31:28 AM 38.2350 -78.4540 229° Southwest 441 507 40,000  Level FlightAware ADS-B
Sun 06:32:04 AM 38.1880 -78.5240 230° Southwest 441 507 40,000  Level FlightAware ADS-B
Sun 06:32:38 AM 38.1430 -78.5900 229° Southwest 442 509 40,000  Level FlightAware ADS-B
Sun 06:33:14 AM 38.0950 -78.6610 229° Southwest 442 509 40,000  Level FlightAware ADS-B
Sun 06:33:50 AM 38.0470 -78.7310 229° Southwest 443 510 40,000  Level FlightAware ADS-B
Sun 06:34:26 AM 37.9980 -78.8020 229° Southwest 442 509 40,000  Level FlightAware ADS-B
Sun 06:34:58 AM 37.9550 -78.8650 229° Southwest 442 509 40,000  Level FlightAware ADS-B
Sun 06:35:34 AM 37.9080 -78.9340 229° Southwest 443 510 40,000  Level FlightAware ADS-B
Sun 06:36:10 AM 37.8590 -79.0040 228° Southwest 445 512 40,000  Level FlightAware ADS-B
Sun 06:36:42 AM 37.8150 -79.0670 229° Southwest 445 512 40,000  Level FlightAware ADS-B
Sun 06:37:18 AM 37.7650 -79.1400 229° Southwest 447 514 40,000  Level FlightAware ADS-B
Sun 06:37:54 AM 37.7160 -79.2100 229° Southwest 440 506 40,000  Level FlightAware ADS-B
Sun 06:38:30 AM 37.6690 -79.2780 229° Southwest 433 498 40,000  Level FlightAware ADS-B
Sun 06:39:02 AM 37.6280 -79.3380 229° Southwest 428 493 40,000  Level FlightAware ADS-B
Sun 06:39:37 AM 37.5820 -79.4030 228° Southwest 424 488 40,000  Level FlightAware ADS-B
Sun 06:40:20 AM 37.5310 -79.4750 228° Southwest 421 484 40,000  Level FlightAware ADS-B
Sun 06:40:56 AM 37.4910 -79.5310 228° Southwest 421 484 40,000  Level FlightAware ADS-B
Sun 06:41:34 AM 37.4490 -79.5900 228° Southwest 421 484 40,000  Level FlightAware ADS-B
Sun 06:42:10 AM 37.4090 -79.6460 228° Southwest 421 484 40,000  Level FlightAware ADS-B
Sun 06:42:46 AM 37.3690 -79.7010 228° Southwest 421 484 40,000  Level FlightAware ADS-B
Sun 06:43:22 AM 37.3290 -79.7570 228° Southwest 421 484 40,000  Level FlightAware ADS-B
Sun 06:43:58 AM 37.2900 -79.8130 229° Southwest 421 484 40,000  Level FlightAware ADS-B
Sun 06:44:34 AM 37.2500 -79.8690 228° Southwest 421 484 40,000  Level FlightAware ADS-B
Sun 06:45:10 AM 37.2100 -79.9240 228° Southwest 421 484 40,000  Level FlightAware ADS-B
Sun 06:45:46 AM 37.1700 -79.9800 228° Southwest 421 484 40,000  Level FlightAware ADS-B
Sun 06:46:22 AM 37.1300 -80.0350 228° Southwest 421 484 40,000  Level FlightAware ADS-B
Sun 06:46:58 AM 37.0900 -80.0910 228° Southwest 421 484 40,000  Level FlightAware ADS-B
Sun 06:47:34 AM 37.0500 -80.1460 228° Southwest 421 484 40,000  Level FlightAware ADS-B
Sun 06:48:10 AM 37.0100 -80.2020 228° Southwest 421 484 40,000  Level FlightAware ADS-B
Sun 06:48:46 AM 36.9700 -80.2570 228° Southwest 421 484 40,000  Level FlightAware ADS-B
Sun 06:49:23 AM 36.9290 -80.3140 228° Southwest 421 484 40,000  Level FlightAware ADS-B
Sun 06:54:59 AM 36.4123 -81.0381 229° Southwest 438 504 40,000  Level FlightAware ADS-B
Sun 06:55:46 AM 36.3490 -81.1247 228° Southwest 440 506 40,000  Level FlightAware ADS-B
Sun 06:59:28 AM 36.0432 -81.5408 228° Southwest 442 509 40,000  Level FlightAware ADS-B
Sun 07:00:00 AM 35.9986 -81.6009 227° Southwest 444 511 40,000  Level FlightAware ADS-B
Sun 07:00:31 AM 35.9568 -81.6571 227° Southwest 444 511 40,000  Level FlightAware ADS-B
Sun 07:01:01 AM 35.9152 -81.7129 227° Southwest 444 511 40,000  Level FlightAware ADS-B
Sun 07:01:32 AM 35.8713 -81.7721 228° Southwest 443 510 40,000 -94 Level FlightAware ADS-B
Sun 07:02:05 AM 35.8280 -81.8300 227° Southwest 445 512 39,900 -353 Descending FlightAware ADS-B
Sun 07:02:23 AM 35.8002 -81.8672 227° Southwest 444 511 39,700 -592 Descending FlightAware ADS-B
Sun 07:03:16 AM 35.7263 -81.9664 227° Southwest 452 520 39,200 -714 Descending FlightAware ADS-B
Sun 07:03:47 AM 35.6817 -82.0258 227° Southwest 457 526 38,700 -885 Descending FlightAware ADS-B
Sun 07:04:17 AM 35.6380 -82.0838 227° Southwest 459 528 38,300 -787 Descending FlightAware ADS-B
Sun 07:04:48 AM 35.5940 -82.1422 227° Southwest 454 522 37,900 -774 Descending FlightAware ADS-B
Sun 07:05:19 AM 35.5503 -82.2002 227° Southwest 456 525 37,500 -885 Descending FlightAware ADS-B
Sun 07:05:49 AM 35.5072 -82.2574 227° Southwest 461 531 37,000 -968 Descending FlightAware ADS-B
Sun 07:06:21 AM 35.4610 -82.3183 227° Southwest 461 531 36,500 -968 Descending FlightAware ADS-B
Sun 07:06:51 AM 35.4170 -82.3763 227° Southwest 459 528 36,000 -1,100 Descending FlightAware ADS-B
Sun 07:07:21 AM 35.3733 -82.4343 227° Southwest 459 528 35,400 1,315 Descending FlightAware ADS-B
Sun 07:08:04 AM 35.3500 -82.4640 226° Southwest 455 524 37,600 -982 Climbing FlightAware ADS-B
Sun 07:08:16 AM 35.2943 -82.5379 227° Southwest 466 536 34,500 -5,163 Descending FlightAware ADS-B
Sun 07:08:47 AM 35.2474 -82.5992 227° Southwest 473 544 33,900 -1,417 Descending FlightAware ADS-B
Sun 07:09:28 AM 35.1858 -82.6798 227° Southwest 487 560 32,800 -1,644 Descending FlightAware ADS-B
Sun 07:10:00 AM 35.1367 -82.7438 227° Southwest 488 562 31,900 -1,742 Descending FlightAware ADS-B
Sun 07:10:30 AM 35.0905 -82.8039 227° Southwest 483 556 31,000 -1,700 Descending FlightAware ADS-B
Sun 07:11:00 AM 35.0440 -82.8644 227° Southwest 485 558 30,200 -1,700 Descending FlightAware ADS-B
Sun 07:11:30 AM 34.9977 -82.9245 227° Southwest 490 564 29,300 -1,770 Descending FlightAware ADS-B
Sun 07:12:01 AM 34.9499 -82.9866 227° Southwest 490 564 28,400 -1,742 Descending FlightAware ADS-B
Sun 07:12:32 AM 34.9020 -83.0483 227° Southwest 492 566 27,500 -1,781 Descending FlightAware ADS-B
Sun 07:13:05 AM 34.8492 -83.1164 227° Southwest 494 568 26,500 -1,970 Descending FlightAware ADS-B
Sun 07:13:39 AM 34.7982 -83.1822 227° Southwest 478 550 25,300 -2,060 Descending FlightAware ADS-B
Sun 07:14:12 AM 34.7487 -83.2460 227° Southwest 472 543 24,200 -1,944 Descending FlightAware ADS-B
Sun 07:14:50 AM 34.6928 -83.3177 227° Southwest 465 535 23,000 -2,000 Descending FlightAware ADS-B
Sun 07:15:21 AM 34.6463 -83.3774 227° Southwest 465 535 21,900 -2,032 Descending FlightAware ADS-B
Sun 07:15:52 AM 34.6013 -83.4352 227° Southwest 460 529 20,900 -1,969 Descending FlightAware ADS-B
Sun 07:16:25 AM 34.5540 -83.4950 226° Southwest 454 522 19,800 -2,060 Descending FlightAware ADS-B
Sun 07:16:59 AM 34.5030 -83.5602 227° Southwest 450 518 18,600 -2,000 Descending FlightAware ADS-B
Sun 07:17:37 AM 34.4490 -83.6280 226° Southwest 444 511 17,400 -2,000 Descending FlightAware ADS-B
Sun 07:18:11 AM 34.4020 -83.6880 226° Southwest 438 504 16,200 -2,057 Descending FlightAware ADS-B
Sun 07:18:47 AM 34.3520 -83.7520 227° Southwest 428 493 15,000 -2,000 Descending FlightAware ADS-B
Sun 07:19:23 AM 34.3040 -83.8130 226° Southwest 414 476 13,800 -1,500 Descending FlightAware ADS-B
Sun 07:19:59 AM 34.2580 -83.8700 226° Southwest 379 436 13,200 -618 Descending FlightAware ADS-B
Sun 07:20:31 AM 34.2210 -83.9170 226° Southwest 341 392 13,100 -88 Descending FlightAware ADS-B
Sun 07:21:07 AM 34.1830 -83.9640 226° Southwest 319 367 13,100  Level FlightAware ADS-B
Sun 07:21:35 AM 34.1490 -83.9930 215° Southwest 322 371 13,100 -214 Level FlightAware ADS-B
Sun 07:22:03 AM 34.1110 -84.0120 202° Southwest 328 377 12,900 -1,125 Descending FlightAware ADS-B
Sun 07:22:39 AM 34.0570 -84.0270 193° South 330 380 11,900 -1,667 Descending FlightAware ADS-B
Sun 07:23:15 AM 34.0030 -84.0410 192° South 328 377 10,900 -1,588 Descending FlightAware ADS-B
Sun 07:23:47 AM 33.9550 -84.0530 192° South 321 369 10,100 -1,607 Descending FlightAware ADS-B
Sun 07:24:11 AM 33.9210 -84.0620 192° South 317 365 9,400 -1,636 Descending FlightAware ADS-B
Sun 07:24:31 AM 33.8920 -84.0690 191° South 313 360 8,900 -1,500 Descending FlightAware ADS-B
Sun 07:24:51 AM 33.8640 -84.0760 192° South 308 354 8,400 -1,350 Descending FlightAware ADS-B
Sun 07:25:11 AM 33.8360 -84.0830 192° South 297 342 8,000 -1,050 Descending FlightAware ADS-B
Sun 07:25:31 AM 33.8110 -84.0890 191° South 280 322 7,700 -714 Descending FlightAware ADS-B
Sun 07:25:53 AM 33.7840 -84.0940 189° South 261 300 7,500 -625 Descending FlightAware ADS-B
Sun 07:26:19 AM 33.7540 -84.0940 180° South 243 280 7,200 -1,091 Descending FlightAware ADS-B
Sun 07:26:37 AM 33.7330 -84.0930 178° South 244 281 6,700 -1,800 Descending FlightAware ADS-B
Sun 07:26:49 AM 33.7200 -84.0930 180° South 246 283 6,300 -1,333 Descending FlightAware ADS-B
Sun 07:27:13 AM 33.6930 -84.0920 178° South 236 272 5,900 -964 Descending FlightAware ADS-B
Sun 07:27:45 AM 33.6580 -84.0940 183° South 221 254 5,400 -900 Descending FlightAware ADS-B
Sun 07:27:53 AM 33.6500 -84.0970 197° South 213 245 5,300 -750 Descending FlightAware ADS-B
Sun 07:28:01 AM 33.6440 -84.1020 215° Southwest 206 237 5,200 -500 Descending FlightAware ADS-B
Sun 07:28:05 AM 33.6420 -84.1050 231° Southwest 203 234 5,200 -500 Level FlightAware ADS-B
Sun 07:28:13 AM 33.6390 -84.1120 243° Southwest 196 226 5,100 -375 Descending FlightAware ADS-B
Sun 07:28:21 AM 33.6380 -84.1180 259° West 194 223 5,100  Level FlightAware ADS-B
Sun 07:28:41 AM 33.6440 -84.1410 287° West 192 221 5,100  Level FlightAware ADS-B
Sun 07:28:57 AM 33.6490 -84.1580 289° West 191 220 5,100 -333 Level FlightAware ADS-B
Sun 07:29:17 AM 33.6510 -84.1790 277° West 197 227 4,900 -750 Descending FlightAware ADS-B
Sun 07:29:45 AM 33.6500 -84.2090 268° West 202 232 4,500 -875 Descending FlightAware ADS-B
Sun 07:30:05 AM 33.6500 -84.2320 270° West 201 231 4,200 -900 Descending FlightAware ADS-B
Sun 07:30:25 AM 33.6490 -84.2540 267° West 198 228 3,900 -1,102 Descending FlightAware ADS-B
Sun 07:30:54 AM 33.6500 -84.2860 272° West 208 239 3,300 -1,132 Descending FlightAware ADS-B
Sun 07:31:18 AM 33.6490 -84.3140 268° West 203 234 2,900 -977 Descending FlightAware ADS-B
Sun 07:31:37 AM 33.6490 -84.3340 270° West 192 221 2,600 -1,029 Descending FlightAware ADS-B
Sun 07:31:53 AM 33.6490 -84.3520 270° West 181 208 2,300 -1,167 Descending FlightAware ADS-B
Sun 07:32:13 AM 33.6490 -84.3710 270° West 172 198 1,900 -1,200 Descending FlightAware ADS-B
Sun 07:32:33 AM 33.6490 -84.3890 270° West 159 183 1,500 -1,050 Descending FlightAware ADS-B
Sun 07:32:53 AM 33.6500 -84.4060 274° West 149 171 1,200 -387 Descending FlightAware ADS-B
Sun 07:33:35 AM 33.6500 -84.4320 270° West 116 133 1,100 -143 Descending FlightAware ADS-B

Login

Don't have an account? Register now (free) for customized features, flight alerts, and more!